sensor_id;sensor_type;location;lat;lon;timestamp;temperature;humidity
59098;DHT22;44883;52.760;6.610;2022-07-04T00:01:24;14.80;99.90
59098;DHT22;44883;52.760;6.610;2022-07-04T00:03:50;14.70;99.90
59098;DHT22;44883;52.760;6.610;2022-07-04T00:06:15;14.70;99.90
59098;DHT22;44883;52.760;6.610;2022-07-04T00:08:41;14.60;99.90
59098;DHT22;44883;52.760;6.610;2022-07-04T00:11:07;14.60;99.90
59098;DHT22;44883;52.760;6.610;2022-07-04T00:13:32;14.60;99.90
59098;DHT22;44883;52.760;6.610;2022-07-04T00:15:58;14.50;99.90
59098;DHT22;44883;52.760;6.610;2022-07-04T00:18:24;14.50;99.90
59098;DHT22;44883;52.760;6.610;2022-07-04T00:20:49;14.50;99.90
59098;DHT22;44883;52.760;6.610;2022-07-04T00:23:15;14.50;99.90
59098;DHT22;44883;52.760;6.610;2022-07-04T00:25:41;14.50;99.90
59098;DHT22;44883;52.760;6.610;2022-07-04T00:28:06;14.40;99.90
59098;DHT22;44883;52.760;6.610;2022-07-04T00:30:32;14.30;99.90
59098;DHT22;44883;52.760;6.610;2022-07-04T00:32:58;14.30;99.90
59098;DHT22;44883;52.760;6.610;2022-07-04T00:35:23;14.40;99.90
59098;DHT22;44883;52.760;6.610;2022-07-04T00:37:49;14.40;99.90
59098;DHT22;44883;52.760;6.610;2022-07-04T00:40:14;14.40;99.90
59098;DHT22;44883;52.760;6.610;2022-07-04T00:42:40;14.40;99.90
59098;DHT22;44883;52.760;6.610;2022-07-04T00:45:06;14.30;99.90
59098;DHT22;44883;52.760;6.610;2022-07-04T00:47:32;14.30;99.90
59098;DHT22;44883;52.760;6.610;2022-07-04T00:49:58;14.30;99.90
59098;DHT22;44883;52.760;6.610;2022-07-04T00:52:23;14.30;99.90
59098;DHT22;44883;52.760;6.610;2022-07-04T00:54:49;14.20;99.90
59098;DHT22;44883;52.760;6.610;2022-07-04T00:57:15;14.20;99.90
59098;DHT22;44883;52.760;6.610;2022-07-04T00:59:40;14.20;99.90
59098;DHT22;44883;52.760;6.610;2022-07-04T01:02:06;14.10;99.90
59098;DHT22;44883;52.760;6.610;2022-07-04T01:04:34;14.10;99.90
59098;DHT22;44883;52.760;6.610;2022-07-04T01:06:59;14.00;99.90
59098;DHT22;44883;52.760;6.610;2022-07-04T01:09:25;14.00;99.90
59098;DHT22;44883;52.760;6.610;2022-07-04T01:11:51;14.00;99.90
59098;DHT22;44883;52.760;6.610;2022-07-04T01:14:17;14.00;99.90
59098;DHT22;44883;52.760;6.610;2022-07-04T01:16:42;14.00;99.90
59098;DHT22;44883;52.760;6.610;2022-07-04T01:19:08;13.90;99.90
59098;DHT22;44883;52.760;6.610;2022-07-04T01:21:33;13.90;99.90
59098;DHT22;44883;52.760;6.610;2022-07-04T01:23:59;13.90;99.90
59098;DHT22;44883;52.760;6.610;2022-07-04T01:26:25;13.90;99.90
59098;DHT22;44883;52.760;6.610;2022-07-04T01:28:50;13.80;99.90
59098;DHT22;44883;52.760;6.610;2022-07-04T01:31:16;13.70;99.90
59098;DHT22;44883;52.760;6.610;2022-07-04T01:33:41;13.70;99.90
59098;DHT22;44883;52.760;6.610;2022-07-04T01:36:07;13.70;99.90
59098;DHT22;44883;52.760;6.610;2022-07-04T01:38:32;13.70;99.90
59098;DHT22;44883;52.760;6.610;2022-07-04T01:40:58;13.70;99.90
59098;DHT22;44883;52.760;6.610;2022-07-04T01:43:23;13.60;99.90
59098;DHT22;44883;52.760;6.610;2022-07-04T01:45:49;13.50;99.90
59098;DHT22;44883;52.760;6.610;2022-07-04T01:48:15;13.50;99.90
59098;DHT22;44883;52.760;6.610;2022-07-04T01:50:41;13.30;99.90
59098;DHT22;44883;52.760;6.610;2022-07-04T01:53:07;13.20;99.90
59098;DHT22;44883;52.760;6.610;2022-07-04T01:55:32;13.20;99.90
59098;DHT22;44883;52.760;6.610;2022-07-04T01:57:59;13.10;99.90
59098;DHT22;44883;52.760;6.610;2022-07-04T02:00:26;13.10;99.90
59098;DHT22;44883;52.760;6.610;2022-07-04T02:03:11;13.10;99.90
59098;DHT22;44883;52.760;6.610;2022-07-04T02:05:37;13.10;99.90
59098;DHT22;44883;52.760;6.610;2022-07-04T02:08:04;13.00;99.90
59098;DHT22;44883;52.760;6.610;2022-07-04T02:10:29;13.10;99.90
59098;DHT22;44883;52.760;6.610;2022-07-04T02:12:55;13.10;99.90
59098;DHT22;44883;52.760;6.610;2022-07-04T02:17:56;13.00;99.90
59098;DHT22;44883;52.760;6.610;2022-07-04T02:20:23;13.00;99.90
59098;DHT22;44883;52.760;6.610;2022-07-04T02:22:48;13.10;99.90
59098;DHT22;44883;52.760;6.610;2022-07-04T02:25:14;13.10;99.90
59098;DHT22;44883;52.760;6.610;2022-07-04T02:27:40;13.10;99.90
59098;DHT22;44883;52.760;6.610;2022-07-04T02:30:06;13.10;99.90
59098;DHT22;44883;52.760;6.610;2022-07-04T02:32:31;13.00;99.90
59098;DHT22;44883;52.760;6.610;2022-07-04T02:34:57;13.10;99.90
59098;DHT22;44883;52.760;6.610;2022-07-04T02:37:23;13.10;99.90
59098;DHT22;44883;52.760;6.610;2022-07-04T02:39:48;13.00;99.90
59098;DHT22;44883;52.760;6.610;2022-07-04T02:42:14;13.00;99.90
59098;DHT22;44883;52.760;6.610;2022-07-04T02:44:39;13.00;99.90
59098;DHT22;44883;52.760;6.610;2022-07-04T02:47:06;13.00;99.90
59098;DHT22;44883;52.760;6.610;2022-07-04T02:49:32;13.00;99.90
59098;DHT22;44883;52.760;6.610;2022-07-04T02:51:58;13.00;99.90
59098;DHT22;44883;52.760;6.610;2022-07-04T02:54:23;13.00;99.90
59098;DHT22;44883;52.760;6.610;2022-07-04T02:56:49;13.00;99.90
59098;DHT22;44883;52.760;6.610;2022-07-04T02:59:14;13.10;99.90
59098;DHT22;44883;52.760;6.610;2022-07-04T03:01:40;13.00;99.90
59098;DHT22;44883;52.760;6.610;2022-07-04T03:04:05;13.00;99.90
59098;DHT22;44883;52.760;6.610;2022-07-04T03:06:31;13.00;99.90
59098;DHT22;44883;52.760;6.610;2022-07-04T03:08:57;13.00;99.90
59098;DHT22;44883;52.760;6.610;2022-07-04T03:11:22;13.00;99.90
59098;DHT22;44883;52.760;6.610;2022-07-04T03:13:48;12.90;99.90
59098;DHT22;44883;52.760;6.610;2022-07-04T03:16:14;13.00;99.90
59098;DHT22;44883;52.760;6.610;2022-07-04T03:18:39;13.00;99.90
59098;DHT22;44883;52.760;6.610;2022-07-04T03:21:05;13.00;99.90
59098;DHT22;44883;52.760;6.610;2022-07-04T03:23:31;13.00;99.90
59098;DHT22;44883;52.760;6.610;2022-07-04T03:25:57;12.90;99.90
59098;DHT22;44883;52.760;6.610;2022-07-04T03:28:23;13.00;99.90
59098;DHT22;44883;52.760;6.610;2022-07-04T03:30:48;13.00;99.90
59098;DHT22;44883;52.760;6.610;2022-07-04T03:33:14;13.10;99.90
59098;DHT22;44883;52.760;6.610;2022-07-04T03:35:40;13.20;99.90
59098;DHT22;44883;52.760;6.610;2022-07-04T03:38:05;13.30;99.90
59098;DHT22;44883;52.760;6.610;2022-07-04T03:40:31;13.40;99.90
59098;DHT22;44883;52.760;6.610;2022-07-04T03:42:58;13.40;99.90
59098;DHT22;44883;52.760;6.610;2022-07-04T03:45:24;13.30;99.90
59098;DHT22;44883;52.760;6.610;2022-07-04T03:47:50;13.30;99.90
59098;DHT22;44883;52.760;6.610;2022-07-04T03:50:16;13.30;99.90
59098;DHT22;44883;52.760;6.610;2022-07-04T03:52:42;13.30;99.90
59098;DHT22;44883;52.760;6.610;2022-07-04T03:55:08;13.30;99.90
59098;DHT22;44883;52.760;6.610;2022-07-04T03:57:34;13.30;99.90
59098;DHT22;44883;52.760;6.610;2022-07-04T03:59:59;13.50;99.90
59098;DHT22;44883;52.760;6.610;2022-07-04T04:02:25;14.00;99.90
59098;DHT22;44883;52.760;6.610;2022-07-04T04:04:51;14.50;99.90
59098;DHT22;44883;52.760;6.610;2022-07-04T04:07:35;15.10;99.90
59098;DHT22;44883;52.760;6.610;2022-07-04T04:10:00;15.70;99.90
59098;DHT22;44883;52.760;6.610;2022-07-04T04:12:26;15.90;99.90
59098;DHT22;44883;52.760;6.610;2022-07-04T04:14:52;16.20;99.90
59098;DHT22;44883;52.760;6.610;2022-07-04T04:17:17;16.60;99.90
59098;DHT22;44883;52.760;6.610;2022-07-04T04:19:43;17.00;99.90
59098;DHT22;44883;52.760;6.610;2022-07-04T04:22:09;17.50;99.10
59098;DHT22;44883;52.760;6.610;2022-07-04T04:24:34;17.90;97.90
59098;DHT22;44883;52.760;6.610;2022-07-04T04:27:00;18.30;96.90
59098;DHT22;44883;52.760;6.610;2022-07-04T04:29:25;18.80;96.00
59098;DHT22;44883;52.760;6.610;2022-07-04T04:31:51;19.10;94.90
59098;DHT22;44883;52.760;6.610;2022-07-04T04:34:16;19.40;94.20
59098;DHT22;44883;52.760;6.610;2022-07-04T04:36:42;19.80;93.00
59098;DHT22;44883;52.760;6.610;2022-07-04T04:39:08;20.10;92.20
59098;DHT22;44883;52.760;6.610;2022-07-04T04:41:33;20.40;91.20
59098;DHT22;44883;52.760;6.610;2022-07-04T04:43:59;20.70;90.40
59098;DHT22;44883;52.760;6.610;2022-07-04T04:46:24;20.90;88.80
59098;DHT22;44883;52.760;6.610;2022-07-04T04:48:50;21.10;87.30
59098;DHT22;44883;52.760;6.610;2022-07-04T04:51:16;21.30;86.40
59098;DHT22;44883;52.760;6.610;2022-07-04T04:53:41;21.60;84.80
59098;DHT22;44883;52.760;6.610;2022-07-04T04:56:07;21.80;82.50
59098;DHT22;44883;52.760;6.610;2022-07-04T04:58:32;21.90;81.80
59098;DHT22;44883;52.760;6.610;2022-07-04T05:00:58;22.00;81.30
59098;DHT22;44883;52.760;6.610;2022-07-04T05:03:24;22.30;79.70
59098;DHT22;44883;52.760;6.610;2022-07-04T05:05:49;22.40;77.60
59098;DHT22;44883;52.760;6.610;2022-07-04T05:08:15;22.50;77.20
59098;DHT22;44883;52.760;6.610;2022-07-04T05:10:40;22.80;76.90
59098;DHT22;44883;52.760;6.610;2022-07-04T05:13:06;23.10;73.20
59098;DHT22;44883;52.760;6.610;2022-07-04T05:15:32;22.90;72.20
59098;DHT22;44883;52.760;6.610;2022-07-04T05:17:57;22.80;72.80
59098;DHT22;44883;52.760;6.610;2022-07-04T05:20:23;23.00;72.40
59098;DHT22;44883;52.760;6.610;2022-07-04T05:22:49;23.40;69.60
59098;DHT22;44883;52.760;6.610;2022-07-04T05:25:15;23.80;68.50
59098;DHT22;44883;52.760;6.610;2022-07-04T05:27:40;24.10;65.40
59098;DHT22;44883;52.760;6.610;2022-07-04T05:30:07;24.30;64.20
59098;DHT22;44883;52.760;6.610;2022-07-04T05:32:33;24.50;62.10
59098;DHT22;44883;52.760;6.610;2022-07-04T05:34:58;24.80;60.80
59098;DHT22;44883;52.760;6.610;2022-07-04T05:37:24;25.00;60.40
59098;DHT22;44883;52.760;6.610;2022-07-04T05:39:50;25.20;59.50
59098;DHT22;44883;52.760;6.610;2022-07-04T05:42:16;25.20;59.50
59098;DHT22;44883;52.760;6.610;2022-07-04T05:44:42;25.20;58.70
59098;DHT22;44883;52.760;6.610;2022-07-04T05:47:08;25.20;59.00
59098;DHT22;44883;52.760;6.610;2022-07-04T05:49:34;25.60;58.10
59098;DHT22;44883;52.760;6.610;2022-07-04T05:51:59;26.00;56.50
59098;DHT22;44883;52.760;6.610;2022-07-04T05:54:25;26.50;54.30
59098;DHT22;44883;52.760;6.610;2022-07-04T05:56:51;26.90;52.30
59098;DHT22;44883;52.760;6.610;2022-07-04T05:59:16;27.00;51.80
59098;DHT22;44883;52.760;6.610;2022-07-04T06:01:42;27.20;50.50
59098;DHT22;44883;52.760;6.610;2022-07-04T06:04:08;27.30;50.60
59098;DHT22;44883;52.760;6.610;2022-07-04T06:06:34;27.50;49.80
59098;DHT22;44883;52.760;6.610;2022-07-04T06:09:00;27.20;49.50
59098;DHT22;44883;52.760;6.610;2022-07-04T06:11:26;27.10;49.90
59098;DHT22;44883;52.760;6.610;2022-07-04T06:13:51;27.30;50.10
59098;DHT22;44883;52.760;6.610;2022-07-04T06:16:17;27.30;49.60
59098;DHT22;44883;52.760;6.610;2022-07-04T06:18:43;27.50;49.10
59098;DHT22;44883;52.760;6.610;2022-07-04T06:21:09;27.80;48.90
59098;DHT22;44883;52.760;6.610;2022-07-04T06:23:35;27.90;48.50
59098;DHT22;44883;52.760;6.610;2022-07-04T06:26:01;28.00;48.40
59098;DHT22;44883;52.760;6.610;2022-07-04T06:28:27;28.30;47.70
59098;DHT22;44883;52.760;6.610;2022-07-04T06:30:53;28.60;47.60
59098;DHT22;44883;52.760;6.610;2022-07-04T06:33:22;28.80;47.00
59098;DHT22;44883;52.760;6.610;2022-07-04T06:35:50;29.00;47.10
59098;DHT22;44883;52.760;6.610;2022-07-04T06:38:27;29.20;47.10
59098;DHT22;44883;52.760;6.610;2022-07-04T06:40:55;28.40;46.60
59098;DHT22;44883;52.760;6.610;2022-07-04T06:43:21;28.10;47.40
59098;DHT22;44883;52.760;6.610;2022-07-04T06:45:47;28.40;47.70
59098;DHT22;44883;52.760;6.610;2022-07-04T06:48:13;28.80;46.80
59098;DHT22;44883;52.760;6.610;2022-07-04T06:50:38;29.10;46.90
59098;DHT22;44883;52.760;6.610;2022-07-04T06:53:05;29.30;46.20
59098;DHT22;44883;52.760;6.610;2022-07-04T06:55:31;29.40;46.20
59098;DHT22;44883;52.760;6.610;2022-07-04T06:57:57;29.80;44.70
59098;DHT22;44883;52.760;6.610;2022-07-04T07:00:24;30.00;45.30
59098;DHT22;44883;52.760;6.610;2022-07-04T07:02:50;30.10;45.20
59098;DHT22;44883;52.760;6.610;2022-07-04T07:05:15;30.10;45.10
59098;DHT22;44883;52.760;6.610;2022-07-04T07:07:41;30.30;45.30
59098;DHT22;44883;52.760;6.610;2022-07-04T07:10:07;30.10;45.10
59098;DHT22;44883;52.760;6.610;2022-07-04T07:12:34;29.30;46.10
59098;DHT22;44883;52.760;6.610;2022-07-04T07:15:01;28.20;47.60
59098;DHT22;44883;52.760;6.610;2022-07-04T07:17:28;27.50;49.40
59098;DHT22;44883;52.760;6.610;2022-07-04T07:19:54;27.10;51.00
59098;DHT22;44883;52.760;6.610;2022-07-04T07:22:20;27.60;51.70
59098;DHT22;44883;52.760;6.610;2022-07-04T07:24:46;28.30;50.10
59098;DHT22;44883;52.760;6.610;2022-07-04T07:27:12;29.10;48.70
59098;DHT22;44883;52.760;6.610;2022-07-04T07:29:38;29.60;47.30
59098;DHT22;44883;52.760;6.610;2022-07-04T07:32:05;29.80;46.70
59098;DHT22;44883;52.760;6.610;2022-07-04T07:34:31;30.00;47.40
59098;DHT22;44883;52.760;6.610;2022-07-04T07:36:57;30.30;47.10
59098;DHT22;44883;52.760;6.610;2022-07-04T07:39:23;30.60;46.60
59098;DHT22;44883;52.760;6.610;2022-07-04T07:41:48;30.80;47.20
59098;DHT22;44883;52.760;6.610;2022-07-04T07:44:14;31.10;45.70
59098;DHT22;44883;52.760;6.610;2022-07-04T07:46:40;30.90;44.90
59098;DHT22;44883;52.760;6.610;2022-07-04T07:49:06;30.20;45.60
59098;DHT22;44883;52.760;6.610;2022-07-04T07:51:32;28.90;46.60
59098;DHT22;44883;52.760;6.610;2022-07-04T07:53:57;27.70;49.00
59098;DHT22;44883;52.760;6.610;2022-07-04T07:56:23;26.70;51.30
59098;DHT22;44883;52.760;6.610;2022-07-04T07:58:49;26.30;58.70
59098;DHT22;44883;52.760;6.610;2022-07-04T08:01:15;27.00;58.90
59098;DHT22;44883;52.760;6.610;2022-07-04T08:03:41;27.60;54.80
59098;DHT22;44883;52.760;6.610;2022-07-04T08:06:25;27.20;53.80
59098;DHT22;44883;52.760;6.610;2022-07-04T08:08:50;26.10;57.00
59098;DHT22;44883;52.760;6.610;2022-07-04T08:11:16;26.20;60.70
59098;DHT22;44883;52.760;6.610;2022-07-04T08:13:42;27.20;59.80
59098;DHT22;44883;52.760;6.610;2022-07-04T08:16:07;27.50;54.00
59098;DHT22;44883;52.760;6.610;2022-07-04T08:18:34;27.80;53.80
59098;DHT22;44883;52.760;6.610;2022-07-04T08:20:59;27.60;53.10
59098;DHT22;44883;52.760;6.610;2022-07-04T08:23:27;26.90;53.40
59098;DHT22;44883;52.760;6.610;2022-07-04T08:25:52;26.10;54.80
59098;DHT22;44883;52.760;6.610;2022-07-04T08:28:18;25.30;58.30
59098;DHT22;44883;52.760;6.610;2022-07-04T08:30:44;24.80;63.30
59098;DHT22;44883;52.760;6.610;2022-07-04T08:33:09;24.20;66.60
59098;DHT22;44883;52.760;6.610;2022-07-04T08:35:35;24.10;72.30
59098;DHT22;44883;52.760;6.610;2022-07-04T08:38:00;25.20;75.90
59098;DHT22;44883;52.760;6.610;2022-07-04T08:40:27;26.40;68.90
59098;DHT22;44883;52.760;6.610;2022-07-04T08:42:54;27.10;58.30
59098;DHT22;44883;52.760;6.610;2022-07-04T08:45:26;27.90;57.00
59098;DHT22;44883;52.760;6.610;2022-07-04T08:48:02;28.80;54.00
59098;DHT22;44883;52.760;6.610;2022-07-04T08:50:39;29.40;51.50
59098;DHT22;44883;52.760;6.610;2022-07-04T08:53:14;30.00;50.30
59098;DHT22;44883;52.760;6.610;2022-07-04T08:55:41;29.40;48.50
59098;DHT22;44883;52.760;6.610;2022-07-04T08:58:26;29.60;49.60
59098;DHT22;44883;52.760;6.610;2022-07-04T09:01:00;29.40;48.80
59098;DHT22;44883;52.760;6.610;2022-07-04T09:03:27;29.10;48.80
59098;DHT22;44883;52.760;6.610;2022-07-04T09:05:54;29.00;49.10
59098;DHT22;44883;52.760;6.610;2022-07-04T09:08:20;29.50;49.20
59098;DHT22;44883;52.760;6.610;2022-07-04T09:10:47;29.10;47.90
59098;DHT22;44883;52.760;6.610;2022-07-04T09:13:14;29.40;48.90
59098;DHT22;44883;52.760;6.610;2022-07-04T09:15:48;30.10;47.30
59098;DHT22;44883;52.760;6.610;2022-07-04T09:18:29;30.70;46.00
59098;DHT22;44883;52.760;6.610;2022-07-04T09:20:57;31.00;46.10
59098;DHT22;44883;52.760;6.610;2022-07-04T09:23:25;31.30;45.20
59098;DHT22;44883;52.760;6.610;2022-07-04T09:28:35;31.20;43.00
59098;DHT22;44883;52.760;6.610;2022-07-04T09:31:01;30.00;44.20
59098;DHT22;44883;52.760;6.610;2022-07-04T09:33:59;28.80;45.20
59098;DHT22;44883;52.760;6.610;2022-07-04T09:36:30;27.70;45.40
59098;DHT22;44883;52.760;6.610;2022-07-04T09:39:20;26.80;47.90
59098;DHT22;44883;52.760;6.610;2022-07-04T09:41:50;26.00;49.10
59098;DHT22;44883;52.760;6.610;2022-07-04T09:44:16;25.20;50.90
59098;DHT22;44883;52.760;6.610;2022-07-04T09:46:41;24.60;52.50
59098;DHT22;44883;52.760;6.610;2022-07-04T09:49:07;24.50;56.00
59098;DHT22;44883;52.760;6.610;2022-07-04T09:56:46;27.20;52.90
59098;DHT22;44883;52.760;6.610;2022-07-04T09:59:12;27.90;51.30
59098;DHT22;44883;52.760;6.610;2022-07-04T10:01:38;28.10;49.00
59098;DHT22;44883;52.760;6.610;2022-07-04T10:04:05;28.10;47.50
59098;DHT22;44883;52.760;6.610;2022-07-04T10:06:38;28.00;48.80
59098;DHT22;44883;52.760;6.610;2022-07-04T10:09:09;28.30;48.00
59098;DHT22;44883;52.760;6.610;2022-07-04T10:11:36;28.80;47.00
59098;DHT22;44883;52.760;6.610;2022-07-04T10:14:07;29.00;46.20
59098;DHT22;44883;52.760;6.610;2022-07-04T10:16:34;29.10;46.70
59098;DHT22;44883;52.760;6.610;2022-07-04T10:19:00;29.30;46.00
59098;DHT22;44883;52.760;6.610;2022-07-04T10:21:26;29.30;44.00
59098;DHT22;44883;52.760;6.610;2022-07-04T10:23:52;29.20;44.60
59098;DHT22;44883;52.760;6.610;2022-07-04T10:26:19;28.50;44.60
59098;DHT22;44883;52.760;6.610;2022-07-04T10:28:46;27.90;45.30
59098;DHT22;44883;52.760;6.610;2022-07-04T10:31:13;27.80;47.00
59098;DHT22;44883;52.760;6.610;2022-07-04T10:33:40;28.00;46.70
59098;DHT22;44883;52.760;6.610;2022-07-04T10:36:21;28.30;46.60
59098;DHT22;44883;52.760;6.610;2022-07-04T10:38:51;28.40;45.30
59098;DHT22;44883;52.760;6.610;2022-07-04T10:41:20;28.10;45.20
59098;DHT22;44883;52.760;6.610;2022-07-04T10:43:54;27.70;44.60
59098;DHT22;44883;52.760;6.610;2022-07-04T10:48:52;27.50;43.70
59098;DHT22;44883;52.760;6.610;2022-07-04T10:54:13;27.40;43.40
59098;DHT22;44883;52.760;6.610;2022-07-04T10:59:26;27.70;44.50
59098;DHT22;44883;52.760;6.610;2022-07-04T11:17:51;27.50;45.20
59098;DHT22;44883;52.760;6.610;2022-07-04T11:20:18;27.50;45.40
59098;DHT22;44883;52.760;6.610;2022-07-04T11:22:44;27.70;44.20
59098;DHT22;44883;52.760;6.610;2022-07-04T11:25:13;27.50;45.20
59098;DHT22;44883;52.760;6.610;2022-07-04T11:27:39;27.10;46.10
59098;DHT22;44883;52.760;6.610;2022-07-04T11:30:06;26.80;45.10
59098;DHT22;44883;52.760;6.610;2022-07-04T11:32:34;26.90;46.00
59098;DHT22;44883;52.760;6.610;2022-07-04T11:35:01;27.10;46.20
59098;DHT22;44883;52.760;6.610;2022-07-04T11:37:28;27.10;45.80
59098;DHT22;44883;52.760;6.610;2022-07-04T11:39:55;26.90;45.00
59098;DHT22;44883;52.760;6.610;2022-07-04T11:42:40;27.00;45.00
59098;DHT22;44883;52.760;6.610;2022-07-04T11:45:24;26.70;44.30
59098;DHT22;44883;52.760;6.610;2022-07-04T11:47:50;26.60;44.80
59098;DHT22;44883;52.760;6.610;2022-07-04T11:50:17;26.40;44.60
59098;DHT22;44883;52.760;6.610;2022-07-04T11:52:48;26.30;45.80
59098;DHT22;44883;52.760;6.610;2022-07-04T11:55:17;26.30;45.80
59098;DHT22;44883;52.760;6.610;2022-07-04T11:57:47;26.60;46.10
59098;DHT22;44883;52.760;6.610;2022-07-04T12:00:18;26.70;45.40
59098;DHT22;44883;52.760;6.610;2022-07-04T12:02:45;26.50;45.50
59098;DHT22;44883;52.760;6.610;2022-07-04T12:05:12;26.60;47.20
59098;DHT22;44883;52.760;6.610;2022-07-04T12:07:39;26.50;46.00
59098;DHT22;44883;52.760;6.610;2022-07-04T12:12:52;26.00;46.80
59098;DHT22;44883;52.760;6.610;2022-07-04T12:15:19;26.10;46.70
59098;DHT22;44883;52.760;6.610;2022-07-04T12:17:52;25.90;46.70
59098;DHT22;44883;52.760;6.610;2022-07-04T12:20:20;26.10;46.30
59098;DHT22;44883;52.760;6.610;2022-07-04T12:22:58;26.30;46.10
59098;DHT22;44883;52.760;6.610;2022-07-04T12:25:35;26.50;46.40
59098;DHT22;44883;52.760;6.610;2022-07-04T12:28:07;26.80;46.30
59098;DHT22;44883;52.760;6.610;2022-07-04T12:33:21;26.60;45.40
59098;DHT22;44883;52.760;6.610;2022-07-04T12:36:00;26.50;46.40
59098;DHT22;44883;52.760;6.610;2022-07-04T12:41:00;26.40;46.60
59098;DHT22;44883;52.760;6.610;2022-07-04T12:48:36;26.30;45.90
59098;DHT22;44883;52.760;6.610;2022-07-04T12:51:13;26.30;46.70
59098;DHT22;44883;52.760;6.610;2022-07-04T12:53:40;26.40;46.80
59098;DHT22;44883;52.760;6.610;2022-07-04T12:56:07;26.50;46.70
59098;DHT22;44883;52.760;6.610;2022-07-04T12:58:34;26.50;46.10
59098;DHT22;44883;52.760;6.610;2022-07-04T13:00:59;26.40;45.70
59098;DHT22;44883;52.760;6.610;2022-07-04T13:03:25;26.20;45.30
59098;DHT22;44883;52.760;6.610;2022-07-04T13:05:51;26.10;45.00
59098;DHT22;44883;52.760;6.610;2022-07-04T13:08:16;26.00;45.00
59098;DHT22;44883;52.760;6.610;2022-07-04T13:10:42;26.10;44.80
59098;DHT22;44883;52.760;6.610;2022-07-04T13:13:08;26.10;45.30
59098;DHT22;44883;52.760;6.610;2022-07-04T13:15:34;26.10;45.10
59098;DHT22;44883;52.760;6.610;2022-07-04T13:17:59;26.20;45.40
59098;DHT22;44883;52.760;6.610;2022-07-04T13:20:25;26.20;45.10
59098;DHT22;44883;52.760;6.610;2022-07-04T13:22:51;26.30;45.50
59098;DHT22;44883;52.760;6.610;2022-07-04T13:25:17;26.30;45.80
59098;DHT22;44883;52.760;6.610;2022-07-04T13:27:43;26.30;45.10
59098;DHT22;44883;52.760;6.610;2022-07-04T13:30:08;26.30;44.70
59098;DHT22;44883;52.760;6.610;2022-07-04T13:32:35;26.30;43.90
59098;DHT22;44883;52.760;6.610;2022-07-04T13:35:02;26.20;43.80
59098;DHT22;44883;52.760;6.610;2022-07-04T13:37:28;26.10;44.40
59098;DHT22;44883;52.760;6.610;2022-07-04T13:39:53;26.00;44.50
59098;DHT22;44883;52.760;6.610;2022-07-04T13:42:20;26.00;43.90
59098;DHT22;44883;52.760;6.610;2022-07-04T13:45:05;26.00;44.20
59098;DHT22;44883;52.760;6.610;2022-07-04T13:47:31;25.90;44.00
59098;DHT22;44883;52.760;6.610;2022-07-04T13:49:57;25.80;44.00
59098;DHT22;44883;52.760;6.610;2022-07-04T13:52:22;25.80;45.60
59098;DHT22;44883;52.760;6.610;2022-07-04T13:54:48;25.80;45.40
59098;DHT22;44883;52.760;6.610;2022-07-04T13:57:13;25.80;44.20
59098;DHT22;44883;52.760;6.610;2022-07-04T13:59:39;25.80;43.90
59098;DHT22;44883;52.760;6.610;2022-07-04T14:02:06;25.80;43.40
59098;DHT22;44883;52.760;6.610;2022-07-04T14:04:31;25.70;43.30
59098;DHT22;44883;52.760;6.610;2022-07-04T14:06:57;25.60;43.40
59098;DHT22;44883;52.760;6.610;2022-07-04T14:09:23;25.60;43.30
59098;DHT22;44883;52.760;6.610;2022-07-04T14:11:49;25.60;43.30
59098;DHT22;44883;52.760;6.610;2022-07-04T14:14:14;25.60;43.30
59098;DHT22;44883;52.760;6.610;2022-07-04T14:16:40;25.60;43.00
59098;DHT22;44883;52.760;6.610;2022-07-04T14:19:05;25.50;42.80
59098;DHT22;44883;52.760;6.610;2022-07-04T14:21:31;25.50;42.90
59098;DHT22;44883;52.760;6.610;2022-07-04T14:23:56;25.40;43.20
59098;DHT22;44883;52.760;6.610;2022-07-04T14:26:22;25.40;42.30
59098;DHT22;44883;52.760;6.610;2022-07-04T14:28:50;25.40;42.50
59098;DHT22;44883;52.760;6.610;2022-07-04T14:31:16;25.40;42.40
59098;DHT22;44883;52.760;6.610;2022-07-04T14:33:42;25.30;42.40
59098;DHT22;44883;52.760;6.610;2022-07-04T14:36:08;25.30;42.30
59098;DHT22;44883;52.760;6.610;2022-07-04T14:38:35;25.30;42.70
59098;DHT22;44883;52.760;6.610;2022-07-04T14:41:01;25.30;42.70
59098;DHT22;44883;52.760;6.610;2022-07-04T14:43:42;25.20;42.80
59098;DHT22;44883;52.760;6.610;2022-07-04T14:46:08;25.10;41.90
59098;DHT22;44883;52.760;6.610;2022-07-04T14:48:34;25.10;42.40
59098;DHT22;44883;52.760;6.610;2022-07-04T14:51:00;25.10;42.40
59098;DHT22;44883;52.760;6.610;2022-07-04T14:53:26;25.00;42.10
59098;DHT22;44883;52.760;6.610;2022-07-04T14:55:52;25.00;42.50
59098;DHT22;44883;52.760;6.610;2022-07-04T14:58:18;25.00;42.90
59098;DHT22;44883;52.760;6.610;2022-07-04T15:00:44;25.10;43.30
59098;DHT22;44883;52.760;6.610;2022-07-04T15:03:10;25.10;42.20
59098;DHT22;44883;52.760;6.610;2022-07-04T15:05:35;25.00;42.30
59098;DHT22;44883;52.760;6.610;2022-07-04T15:08:02;25.00;42.10
59098;DHT22;44883;52.760;6.610;2022-07-04T15:10:27;25.00;42.60
59098;DHT22;44883;52.760;6.610;2022-07-04T15:12:53;25.00;43.10
59098;DHT22;44883;52.760;6.610;2022-07-04T15:15:19;25.00;42.50
59098;DHT22;44883;52.760;6.610;2022-07-04T15:17:46;24.90;42.50
59098;DHT22;44883;52.760;6.610;2022-07-04T15:20:12;24.80;42.90
59098;DHT22;44883;52.760;6.610;2022-07-04T15:22:56;24.90;43.00
59098;DHT22;44883;52.760;6.610;2022-07-04T15:25:40;24.90;43.10
59098;DHT22;44883;52.760;6.610;2022-07-04T15:28:06;24.90;43.30
59098;DHT22;44883;52.760;6.610;2022-07-04T15:30:32;24.90;43.20
59098;DHT22;44883;52.760;6.610;2022-07-04T15:32:57;24.90;43.20
59098;DHT22;44883;52.760;6.610;2022-07-04T15:35:23;24.80;42.90
59098;DHT22;44883;52.760;6.610;2022-07-04T15:37:48;24.80;43.40
59098;DHT22;44883;52.760;6.610;2022-07-04T15:40:14;24.80;43.20
59098;DHT22;44883;52.760;6.610;2022-07-04T15:42:40;24.70;43.20
59098;DHT22;44883;52.760;6.610;2022-07-04T15:45:06;24.70;43.60
59098;DHT22;44883;52.760;6.610;2022-07-04T15:47:31;24.70;43.70
59098;DHT22;44883;52.760;6.610;2022-07-04T15:49:57;24.70;44.20
59098;DHT22;44883;52.760;6.610;2022-07-04T15:52:22;24.60;44.00
59098;DHT22;44883;52.760;6.610;2022-07-04T15:54:49;24.60;44.50
59098;DHT22;44883;52.760;6.610;2022-07-04T15:57:17;24.60;44.40
59098;DHT22;44883;52.760;6.610;2022-07-04T16:11:34;24.50;43.30
59098;DHT22;44883;52.760;6.610;2022-07-04T16:18:39;24.20;42.90
59098;DHT22;44883;52.760;6.610;2022-07-04T17:05:08;23.50;48.50
59098;DHT22;44883;52.760;6.610;2022-07-04T17:15:39;23.20;48.20
59098;DHT22;44883;52.760;6.610;2022-07-04T17:18:42;23.00;48.20
59098;DHT22;44883;52.760;6.610;2022-07-04T17:36:01;22.70;49.70
59098;DHT22;44883;52.760;6.610;2022-07-04T17:38:46;22.50;50.50
59098;DHT22;44883;52.760;6.610;2022-07-04T17:44:45;22.40;50.20